KPKB/PKB METAR and TAF weather

Enter ICAO airport designator
Station Type Date Time Source
KPKB METAR 2022/01/29 13:53 UTC NOAA

KPKB 291353Z VRB06KT 10SM CLR M14/M17 A3020 RMK AO2 SLP242 T11391172


Station Type Date Time Source
KPKB Decoded METAR 2022/01/29 13:53 UTC NOAA

MID-OHIO VALLEY RGNL AIRPORT, WV, United States (KPKB) 39-20N 81-27W
Jan 29, 2022 - 08:53 AM EST / 2022.01.29 1353 UTC
Wind: Variable at 7 MPH (6 KT):0
Visibility: 10 mile(s):0
Sky conditions: clear
Temperature: 7.0 F (-13.9 C)
Windchill: -4 F (-20 C):1
Dew Point: 1.0 F (-17.2 C)
Relative Humidity: 76%
Pressure (altimeter): 30.2 in. Hg (1022 hPa)
ob: KPKB 291353Z VRB06KT 10SM CLR M14/M17 A3020 RMK AO2 SLP242 T11391172
cycle: 14

Station Type Date Time Source
KPKB TAF 2022/01/29 12:22 UTC NOAA

TAF KPKB 291120Z 2912/3012 34006KT P6SM FEW120
FM291500 34006KT P6SM SCT040
FM292300 28004KT P6SM FEW250
FM300900 18004KT P6SM BKN060

Example: see airport list